sensor_id;sensor_type;location;lat;lon;timestamp;noise_LAeq;noise_LA_min;noise_LA_max;noise_LA01;noise_LA95
71628;Laerm;59477;52.374;9.916;2023-04-16T00:00:41;44.07;38.65;50.49;;
71628;Laerm;59477;52.374;9.916;2023-04-16T00:02:52;45.19;39.50;58.52;;
71628;Laerm;59477;52.374;9.916;2023-04-16T00:05:02;43.58;39.40;50.74;;
71628;Laerm;59477;52.374;9.916;2023-04-16T00:07:03;43.88;38.27;52.25;;
71628;Laerm;59477;52.374;9.916;2023-04-16T00:09:04;44.58;40.10;51.91;;
71628;Laerm;59477;52.374;9.916;2023-04-16T00:11:04;44.14;39.61;52.90;;
71628;Laerm;59477;52.374;9.916;2023-04-16T00:13:05;44.08;39.57;49.29;;
71628;Laerm;59477;52.374;9.916;2023-04-16T00:15:06;44.95;40.21;53.23;;
71628;Laerm;59477;52.374;9.916;2023-04-16T00:17:06;41.86;36.98;53.55;;
71628;Laerm;59477;52.374;9.916;2023-04-16T00:19:07;42.60;37.82;51.90;;
71628;Laerm;59477;52.374;9.916;2023-04-16T00:21:07;50.77;39.22;63.74;;
71628;Laerm;59477;52.374;9.916;2023-04-16T00:23:11;52.86;41.18;62.34;;
71628;Laerm;59477;52.374;9.916;2023-04-16T00:25:12;43.61;39.02;50.35;;
71628;Laerm;59477;52.374;9.916;2023-04-16T00:27:12;50.96;38.49;65.26;;
71628;Laerm;59477;52.374;9.916;2023-04-16T00:29:13;51.67;40.31;61.94;;
71628;Laerm;59477;52.374;9.916;2023-04-16T00:31:14;46.99;38.47;57.29;;
71628;Laerm;59477;52.374;9.916;2023-04-16T00:33:14;48.03;42.75;58.02;;
71628;Laerm;59477;52.374;9.916;2023-04-16T00:35:17;42.41;37.38;50.42;;
71628;Laerm;59477;52.374;9.916;2023-04-16T00:37:18;42.70;37.52;52.17;;
71628;Laerm;59477;52.374;9.916;2023-04-16T00:39:18;43.03;38.39;50.01;;
71628;Laerm;59477;52.374;9.916;2023-04-16T00:41:21;41.33;37.41;51.64;;
71628;Laerm;59477;52.374;9.916;2023-04-16T00:43:22;55.04;38.02;66.62;;
71628;Laerm;59477;52.374;9.916;2023-04-16T00:45:24;43.47;38.29;53.35;;
71628;Laerm;59477;52.374;9.916;2023-04-16T00:47:25;43.14;36.77;54.02;;
71628;Laerm;59477;52.374;9.916;2023-04-16T00:49:27;47.89;37.54;58.43;;
71628;Laerm;59477;52.374;9.916;2023-04-16T00:51:27;43.14;38.43;49.25;;
71628;Laerm;59477;52.374;9.916;2023-04-16T00:53:28;43.94;39.74;50.64;;
71628;Laerm;59477;52.374;9.916;2023-04-16T00:55:29;43.17;39.23;53.37;;
71628;Laerm;59477;52.374;9.916;2023-04-16T00:57:31;41.80;37.62;47.63;;
71628;Laerm;59477;52.374;9.916;2023-04-16T00:59:31;52.72;39.18;64.19;;
71628;Laerm;59477;52.374;9.916;2023-04-16T01:01:32;41.50;35.68;57.64;;
71628;Laerm;59477;52.374;9.916;2023-04-16T01:03:39;40.50;36.91;46.78;;
71628;Laerm;59477;52.374;9.916;2023-04-16T01:05:40;41.19;36.82;50.46;;
71628;Laerm;59477;52.374;9.916;2023-04-16T01:07:41;42.45;35.86;55.02;;
71628;Laerm;59477;52.374;9.916;2023-04-16T01:09:41;46.72;36.68;58.48;;
71628;Laerm;59477;52.374;9.916;2023-04-16T01:11:42;38.91;35.57;43.98;;
71628;Laerm;59477;52.374;9.916;2023-04-16T01:13:42;39.54;35.22;48.01;;
71628;Laerm;59477;52.374;9.916;2023-04-16T01:15:43;39.54;36.30;44.13;;
71628;Laerm;59477;52.374;9.916;2023-04-16T01:17:46;47.68;35.53;59.56;;
71628;Laerm;59477;52.374;9.916;2023-04-16T01:19:47;39.64;36.75;47.73;;
71628;Laerm;59477;52.374;9.916;2023-04-16T01:21:47;44.20;37.15;51.04;;
71628;Laerm;59477;52.374;9.916;2023-04-16T01:23:48;41.51;37.12;49.85;;
71628;Laerm;59477;52.374;9.916;2023-04-16T01:25:48;40.33;36.21;50.88;;
71628;Laerm;59477;52.374;9.916;2023-04-16T01:27:49;45.14;37.70;57.96;;
71628;Laerm;59477;52.374;9.916;2023-04-16T01:29:50;47.91;38.47;56.39;;
71628;Laerm;59477;52.374;9.916;2023-04-16T01:31:50;42.54;36.68;51.03;;
71628;Laerm;59477;52.374;9.916;2023-04-16T01:33:51;41.40;36.13;50.39;;
71628;Laerm;59477;52.374;9.916;2023-04-16T01:35:51;44.47;37.54;56.44;;
71628;Laerm;59477;52.374;9.916;2023-04-16T01:37:52;54.19;43.48;66.81;;
71628;Laerm;59477;52.374;9.916;2023-04-16T01:39:53;44.21;38.32;52.05;;
71628;Laerm;59477;52.374;9.916;2023-04-16T01:41:53;42.08;36.56;59.46;;
71628;Laerm;59477;52.374;9.916;2023-04-16T01:43:54;49.55;36.11;61.71;;
71628;Laerm;59477;52.374;9.916;2023-04-16T01:45:57;48.88;38.35;60.54;;
71628;Laerm;59477;52.374;9.916;2023-04-16T01:47:58;52.50;42.40;63.29;;
71628;Laerm;59477;52.374;9.916;2023-04-16T01:49:59;54.85;35.94;64.35;;
71628;Laerm;59477;52.374;9.916;2023-04-16T01:52:00;39.90;35.69;49.14;;
71628;Laerm;59477;52.374;9.916;2023-04-16T01:54:01;42.31;38.28;48.94;;
71628;Laerm;59477;52.374;9.916;2023-04-16T01:56:01;43.50;37.75;54.52;;
71628;Laerm;59477;52.374;9.916;2023-04-16T01:58:02;40.69;36.06;47.05;;
71628;Laerm;59477;52.374;9.916;2023-04-16T02:00:03;39.89;36.50;45.17;;
71628;Laerm;59477;52.374;9.916;2023-04-16T02:02:10;40.71;36.98;46.83;;
71628;Laerm;59477;52.374;9.916;2023-04-16T02:04:11;40.84;36.15;51.64;;
71628;Laerm;59477;52.374;9.916;2023-04-16T02:06:11;39.69;35.15;48.52;;
71628;Laerm;59477;52.374;9.916;2023-04-16T02:08:12;40.21;36.40;47.50;;
71628;Laerm;59477;52.374;9.916;2023-04-16T02:10:13;40.63;36.27;48.98;;
71628;Laerm;59477;52.374;9.916;2023-04-16T02:12:13;48.59;40.05;62.51;;
71628;Laerm;59477;52.374;9.916;2023-04-16T02:14:14;40.08;36.05;45.76;;
71628;Laerm;59477;52.374;9.916;2023-04-16T02:16:15;38.98;35.15;46.97;;
71628;Laerm;59477;52.374;9.916;2023-04-16T02:18:15;39.63;35.10;48.52;;
71628;Laerm;59477;52.374;9.916;2023-04-16T02:20:16;40.71;36.19;47.67;;
71628;Laerm;59477;52.374;9.916;2023-04-16T02:22:17;41.93;37.27;54.33;;
71628;Laerm;59477;52.374;9.916;2023-04-16T02:24:19;40.73;36.90;47.53;;
71628;Laerm;59477;52.374;9.916;2023-04-16T02:26:19;44.14;37.17;54.01;;
71628;Laerm;59477;52.374;9.916;2023-04-16T02:28:20;53.49;40.20;61.80;;
71628;Laerm;59477;52.374;9.916;2023-04-16T02:30:21;42.93;37.54;52.39;;
71628;Laerm;59477;52.374;9.916;2023-04-16T02:32:21;40.61;36.95;50.60;;
71628;Laerm;59477;52.374;9.916;2023-04-16T02:34:22;41.37;36.71;48.15;;
71628;Laerm;59477;52.374;9.916;2023-04-16T02:36:22;43.20;36.97;53.56;;
71628;Laerm;59477;52.374;9.916;2023-04-16T02:38:23;39.46;35.32;52.58;;
71628;Laerm;59477;52.374;9.916;2023-04-16T02:40:24;43.43;37.28;54.02;;
71628;Laerm;59477;52.374;9.916;2023-04-16T02:42:25;52.42;41.36;64.21;;
71628;Laerm;59477;52.374;9.916;2023-04-16T02:44:25;43.98;38.32;57.23;;
71628;Laerm;59477;52.374;9.916;2023-04-16T02:46:26;43.18;38.63;49.47;;
71628;Laerm;59477;52.374;9.916;2023-04-16T02:48:27;42.44;38.30;48.91;;
71628;Laerm;59477;52.374;9.916;2023-04-16T02:50:27;43.81;37.86;53.03;;
71628;Laerm;59477;52.374;9.916;2023-04-16T02:52:28;41.61;36.44;51.64;;
71628;Laerm;59477;52.374;9.916;2023-04-16T02:54:28;40.81;36.52;58.47;;
71628;Laerm;59477;52.374;9.916;2023-04-16T02:56:29;40.35;36.48;47.62;;
71628;Laerm;59477;52.374;9.916;2023-04-16T02:58:29;39.93;36.26;50.83;;
71628;Laerm;59477;52.374;9.916;2023-04-16T03:00:30;41.37;36.65;50.70;;
71628;Laerm;59477;52.374;9.916;2023-04-16T03:02:31;40.67;35.57;50.85;;
71628;Laerm;59477;52.374;9.916;2023-04-16T03:04:32;41.64;37.18;60.10;;
71628;Laerm;59477;52.374;9.916;2023-04-16T03:06:33;39.61;35.74;47.48;;
71628;Laerm;59477;52.374;9.916;2023-04-16T03:08:33;40.95;35.50;50.28;;
71628;Laerm;59477;52.374;9.916;2023-04-16T03:10:34;39.65;35.84;45.06;;
71628;Laerm;59477;52.374;9.916;2023-04-16T03:12:35;40.32;35.69;47.84;;
71628;Laerm;59477;52.374;9.916;2023-04-16T03:14:36;40.53;37.00;48.93;;
71628;Laerm;59477;52.374;9.916;2023-04-16T03:16:36;57.29;43.44;68.93;;
71628;Laerm;59477;52.374;9.916;2023-04-16T03:18:37;42.31;37.89;52.22;;
71628;Laerm;59477;52.374;9.916;2023-04-16T03:20:37;42.80;38.85;54.58;;
71628;Laerm;59477;52.374;9.916;2023-04-16T03:22:38;40.81;36.55;48.81;;
71628;Laerm;59477;52.374;9.916;2023-04-16T03:24:39;53.85;36.69;70.02;;
71628;Laerm;59477;52.374;9.916;2023-04-16T03:26:40;55.90;38.83;68.58;;
71628;Laerm;59477;52.374;9.916;2023-04-16T03:28:40;42.37;37.55;50.96;;
71628;Laerm;59477;52.374;9.916;2023-04-16T03:30:41;41.55;37.08;49.17;;
71628;Laerm;59477;52.374;9.916;2023-04-16T03:32:41;43.10;37.90;53.48;;
71628;Laerm;59477;52.374;9.916;2023-04-16T03:34:42;53.80;38.95;65.58;;
71628;Laerm;59477;52.374;9.916;2023-04-16T03:36:42;42.90;38.41;58.01;;
71628;Laerm;59477;52.374;9.916;2023-04-16T03:38:43;42.80;38.50;56.85;;
71628;Laerm;59477;52.374;9.916;2023-04-16T03:40:44;45.73;38.85;58.20;;
71628;Laerm;59477;52.374;9.916;2023-04-16T03:42:44;44.73;36.88;58.52;;
71628;Laerm;59477;52.374;9.916;2023-04-16T03:44:45;57.02;39.98;67.60;;
71628;Laerm;59477;52.374;9.916;2023-04-16T03:46:45;44.66;37.75;58.41;;
71628;Laerm;59477;52.374;9.916;2023-04-16T03:48:46;46.38;39.54;65.98;;
71628;Laerm;59477;52.374;9.916;2023-04-16T03:50:47;45.30;38.04;59.75;;
71628;Laerm;59477;52.374;9.916;2023-04-16T03:52:47;45.71;37.71;60.65;;
71628;Laerm;59477;52.374;9.916;2023-04-16T03:54:48;46.34;39.25;57.80;;
71628;Laerm;59477;52.374;9.916;2023-04-16T03:56:49;44.39;38.81;54.73;;
71628;Laerm;59477;52.374;9.916;2023-04-16T03:58:51;48.67;37.98;60.10;;
71628;Laerm;59477;52.374;9.916;2023-04-16T04:00:52;46.39;38.18;58.28;;
71628;Laerm;59477;52.374;9.916;2023-04-16T04:02:53;52.49;40.10;72.37;;
71628;Laerm;59477;52.374;9.916;2023-04-16T04:04:53;45.12;37.59;62.56;;
71628;Laerm;59477;52.374;9.916;2023-04-16T04:06:54;59.20;40.41;72.28;;
71628;Laerm;59477;52.374;9.916;2023-04-16T04:08:55;47.48;40.00;58.86;;
71628;Laerm;59477;52.374;9.916;2023-04-16T04:10:55;48.03;39.59;68.49;;
71628;Laerm;59477;52.374;9.916;2023-04-16T04:12:56;47.89;40.17;60.35;;
71628;Laerm;59477;52.374;9.916;2023-04-16T04:14:56;52.92;43.81;67.06;;
71628;Laerm;59477;52.374;9.916;2023-04-16T04:16:57;55.03;42.36;65.54;;
71628;Laerm;59477;52.374;9.916;2023-04-16T04:18:57;55.16;42.63;68.66;;
71628;Laerm;59477;52.374;9.916;2023-04-16T04:21:04;48.45;39.98;58.63;;
71628;Laerm;59477;52.374;9.916;2023-04-16T04:23:05;53.03;40.39;69.36;;
71628;Laerm;59477;52.374;9.916;2023-04-16T04:25:06;52.99;39.43;70.22;;
71628;Laerm;59477;52.374;9.916;2023-04-16T04:27:07;49.33;39.57;67.87;;
71628;Laerm;59477;52.374;9.916;2023-04-16T04:29:11;50.45;40.25;63.43;;
71628;Laerm;59477;52.374;9.916;2023-04-16T04:31:12;47.10;40.69;64.33;;
71628;Laerm;59477;52.374;9.916;2023-04-16T04:33:13;46.01;40.20;60.25;;
71628;Laerm;59477;52.374;9.916;2023-04-16T04:35:13;51.71;40.24;68.88;;
71628;Laerm;59477;52.374;9.916;2023-04-16T04:37:14;45.44;41.16;56.98;;
71628;Laerm;59477;52.374;9.916;2023-04-16T04:39:15;44.44;40.51;52.80;;
71628;Laerm;59477;52.374;9.916;2023-04-16T04:41:15;48.87;40.79;60.02;;
71628;Laerm;59477;52.374;9.916;2023-04-16T04:43:16;49.06;42.03;65.06;;
71628;Laerm;59477;52.374;9.916;2023-04-16T04:45:17;51.80;41.26;65.06;;
71628;Laerm;59477;52.374;9.916;2023-04-16T04:47:18;47.21;40.35;62.85;;
71628;Laerm;59477;52.374;9.916;2023-04-16T04:49:19;48.01;40.96;64.55;;
71628;Laerm;59477;52.374;9.916;2023-04-16T04:51:19;45.67;40.74;63.09;;
71628;Laerm;59477;52.374;9.916;2023-04-16T04:53:20;50.35;40.71;65.93;;
71628;Laerm;59477;52.374;9.916;2023-04-16T04:55:20;50.80;41.28;69.79;;
71628;Laerm;59477;52.374;9.916;2023-04-16T04:57:21;52.89;42.13;69.96;;
71628;Laerm;59477;52.374;9.916;2023-04-16T04:59:22;48.83;41.88;68.70;;
71628;Laerm;59477;52.374;9.916;2023-04-16T05:01:23;45.99;41.96;51.97;;
71628;Laerm;59477;52.374;9.916;2023-04-16T05:03:23;47.79;41.21;58.36;;
71628;Laerm;59477;52.374;9.916;2023-04-16T05:05:24;45.97;40.59;52.46;;
71628;Laerm;59477;52.374;9.916;2023-04-16T05:07:24;47.40;41.07;58.21;;
71628;Laerm;59477;52.374;9.916;2023-04-16T05:09:25;46.93;40.74;55.64;;
71628;Laerm;59477;52.374;9.916;2023-04-16T05:11:25;47.74;41.83;57.06;;
71628;Laerm;59477;52.374;9.916;2023-04-16T05:13:26;47.70;41.28;56.44;;
71628;Laerm;59477;52.374;9.916;2023-04-16T05:15:26;47.88;40.46;62.05;;
71628;Laerm;59477;52.374;9.916;2023-04-16T05:17:27;47.02;41.01;62.56;;
71628;Laerm;59477;52.374;9.916;2023-04-16T05:19:30;51.99;41.91;70.49;;
71628;Laerm;59477;52.374;9.916;2023-04-16T05:21:31;54.04;41.72;73.55;;
71628;Laerm;59477;52.374;9.916;2023-04-16T05:23:40;46.83;40.89;57.68;;
71628;Laerm;59477;52.374;9.916;2023-04-16T05:25:41;48.79;41.79;61.02;;
71628;Laerm;59477;52.374;9.916;2023-04-16T05:27:42;48.06;40.73;67.32;;
71628;Laerm;59477;52.374;9.916;2023-04-16T05:29:42;45.95;41.70;59.26;;
71628;Laerm;59477;52.374;9.916;2023-04-16T05:31:43;45.19;39.80;58.89;;
71628;Laerm;59477;52.374;9.916;2023-04-16T05:33:43;53.56;43.23;65.21;;
71628;Laerm;59477;52.374;9.916;2023-04-16T05:35:44;46.40;42.70;52.55;;
71628;Laerm;59477;52.374;9.916;2023-04-16T05:37:45;47.18;41.87;55.94;;
71628;Laerm;59477;52.374;9.916;2023-04-16T05:39:45;49.01;42.29;59.84;;
71628;Laerm;59477;52.374;9.916;2023-04-16T05:41:46;48.72;43.52;56.40;;
71628;Laerm;59477;52.374;9.916;2023-04-16T05:43:47;47.38;41.78;52.80;;
71628;Laerm;59477;52.374;9.916;2023-04-16T05:45:47;49.06;42.26;67.48;;
71628;Laerm;59477;52.374;9.916;2023-04-16T05:47:48;47.46;41.57;63.53;;
71628;Laerm;59477;52.374;9.916;2023-04-16T05:49:48;48.53;40.43;66.31;;
71628;Laerm;59477;52.374;9.916;2023-04-16T05:51:49;48.95;41.54;65.56;;
71628;Laerm;59477;52.374;9.916;2023-04-16T05:53:50;54.96;43.27;71.75;;
71628;Laerm;59477;52.374;9.916;2023-04-16T05:55:50;48.44;41.62;66.68;;
71628;Laerm;59477;52.374;9.916;2023-04-16T05:57:51;48.53;41.87;58.20;;
71628;Laerm;59477;52.374;9.916;2023-04-16T05:59:51;47.30;42.25;53.40;;
71628;Laerm;59477;52.374;9.916;2023-04-16T06:01:52;48.54;40.94;65.40;;
71628;Laerm;59477;52.374;9.916;2023-04-16T06:03:52;48.31;42.07;58.40;;
71628;Laerm;59477;52.374;9.916;2023-04-16T06:05:53;50.22;42.39;66.15;;
71628;Laerm;59477;52.374;9.916;2023-04-16T06:07:53;49.50;42.11;63.37;;
71628;Laerm;59477;52.374;9.916;2023-04-16T06:09:55;49.17;41.87;59.74;;
71628;Laerm;59477;52.374;9.916;2023-04-16T06:11:55;52.68;42.46;71.87;;
71628;Laerm;59477;52.374;9.916;2023-04-16T06:13:57;47.52;42.03;62.45;;
71628;Laerm;59477;52.374;9.916;2023-04-16T06:15:58;46.25;41.34;53.83;;
71628;Laerm;59477;52.374;9.916;2023-04-16T06:17:58;46.49;41.25;55.01;;
71628;Laerm;59477;52.374;9.916;2023-04-16T06:19:59;50.24;43.07;61.74;;
71628;Laerm;59477;52.374;9.916;2023-04-16T06:22:00;46.37;41.90;62.63;;
71628;Laerm;59477;52.374;9.916;2023-04-16T06:24:00;57.08;43.44;66.68;;
71628;Laerm;59477;52.374;9.916;2023-04-16T06:26:01;49.12;43.29;64.39;;
71628;Laerm;59477;52.374;9.916;2023-04-16T06:28:01;48.04;42.23;63.84;;
71628;Laerm;59477;52.374;9.916;2023-04-16T06:30:02;48.31;43.07;62.25;;
71628;Laerm;59477;52.374;9.916;2023-04-16T06:32:03;46.16;41.87;51.11;;
71628;Laerm;59477;52.374;9.916;2023-04-16T06:34:04;46.89;42.57;60.91;;
71628;Laerm;59477;52.374;9.916;2023-04-16T06:36:04;47.68;42.92;62.21;;
71628;Laerm;59477;52.374;9.916;2023-04-16T06:38:05;49.18;42.36;64.30;;
71628;Laerm;59477;52.374;9.916;2023-04-16T06:40:05;51.45;43.78;61.43;;
71628;Laerm;59477;52.374;9.916;2023-04-16T06:42:06;55.19;43.23;68.38;;
71628;Laerm;59477;52.374;9.916;2023-04-16T06:44:07;53.89;43.97;69.55;;
71628;Laerm;59477;52.374;9.916;2023-04-16T06:46:07;49.94;42.89;64.40;;
71628;Laerm;59477;52.374;9.916;2023-04-16T06:48:08;47.80;42.94;61.28;;
71628;Laerm;59477;52.374;9.916;2023-04-16T06:50:09;59.96;42.63;73.94;;
71628;Laerm;59477;52.374;9.916;2023-04-16T06:52:10;48.10;43.55;58.82;;
71628;Laerm;59477;52.374;9.916;2023-04-16T06:54:11;48.93;43.95;56.43;;
71628;Laerm;59477;52.374;9.916;2023-04-16T06:56:11;49.75;44.05;56.28;;
71628;Laerm;59477;52.374;9.916;2023-04-16T06:58:12;54.72;42.83;78.84;;
71628;Laerm;59477;52.374;9.916;2023-04-16T07:00:12;62.66;44.13;85.49;;
71628;Laerm;59477;52.374;9.916;2023-04-16T07:02:13;47.77;42.22;60.60;;
71628;Laerm;59477;52.374;9.916;2023-04-16T07:04:14;51.16;43.88;67.70;;
71628;Laerm;59477;52.374;9.916;2023-04-16T07:06:14;50.62;43.95;69.62;;
71628;Laerm;59477;52.374;9.916;2023-04-16T07:08:15;50.90;42.81;63.56;;
71628;Laerm;59477;52.374;9.916;2023-04-16T07:10:15;57.28;44.95;66.26;;
71628;Laerm;59477;52.374;9.916;2023-04-16T07:12:16;49.79;43.88;60.80;;
71628;Laerm;59477;52.374;9.916;2023-04-16T07:14:16;53.48;43.26;65.92;;
71628;Laerm;59477;52.374;9.916;2023-04-16T07:16:17;52.34;42.84;66.74;;
71628;Laerm;59477;52.374;9.916;2023-04-16T07:18:18;52.86;43.84;62.73;;
71628;Laerm;59477;52.374;9.916;2023-04-16T07:20:18;51.97;43.36;69.24;;
71628;Laerm;59477;52.374;9.916;2023-04-16T07:22:19;56.51;44.37;74.52;;
71628;Laerm;59477;52.374;9.916;2023-04-16T07:24:19;52.39;43.58;70.48;;
71628;Laerm;59477;52.374;9.916;2023-04-16T07:26:20;47.76;43.70;52.93;;
71628;Laerm;59477;52.374;9.916;2023-04-16T07:28:21;51.49;45.28;59.53;;
71628;Laerm;59477;52.374;9.916;2023-04-16T07:30:24;50.48;44.25;59.62;;
71628;Laerm;59477;52.374;9.916;2023-04-16T07:32:25;49.85;43.36;62.07;;
71628;Laerm;59477;52.374;9.916;2023-04-16T07:34:25;48.02;42.46;58.96;;
71628;Laerm;59477;52.374;9.916;2023-04-16T07:36:26;46.57;42.48;52.40;;
71628;Laerm;59477;52.374;9.916;2023-04-16T07:38:27;47.62;43.74;58.66;;
71628;Laerm;59477;52.374;9.916;2023-04-16T07:40:28;48.22;44.35;53.95;;
71628;Laerm;59477;52.374;9.916;2023-04-16T07:42:28;47.85;43.46;53.06;;
71628;Laerm;59477;52.374;9.916;2023-04-16T07:44:31;49.25;42.92;57.83;;
71628;Laerm;59477;52.374;9.916;2023-04-16T07:46:32;49.48;42.93;65.65;;
71628;Laerm;59477;52.374;9.916;2023-04-16T07:48:32;48.66;43.62;60.86;;
71628;Laerm;59477;52.374;9.916;2023-04-16T07:50:33;47.76;43.04;57.88;;
71628;Laerm;59477;52.374;9.916;2023-04-16T07:52:34;48.61;42.86;60.03;;
71628;Laerm;59477;52.374;9.916;2023-04-16T07:54:34;51.06;43.83;63.14;;
71628;Laerm;59477;52.374;9.916;2023-04-16T07:56:35;49.74;43.50;62.61;;
71628;Laerm;59477;52.374;9.916;2023-04-16T07:58:36;58.28;44.74;66.50;;
71628;Laerm;59477;52.374;9.916;2023-04-16T08:00:36;52.66;44.48;61.98;;
71628;Laerm;59477;52.374;9.916;2023-04-16T08:02:37;52.32;44.06;66.92;;
71628;Laerm;59477;52.374;9.916;2023-04-16T08:04:37;51.66;44.83;62.08;;
71628;Laerm;59477;52.374;9.916;2023-04-16T08:06:38;55.01;44.01;67.25;;
71628;Laerm;59477;52.374;9.916;2023-04-16T08:08:38;51.12;43.97;59.50;;
71628;Laerm;59477;52.374;9.916;2023-04-16T08:10:39;49.37;42.90;65.27;;
71628;Laerm;59477;52.374;9.916;2023-04-16T08:12:40;49.84;43.02;66.41;;
71628;Laerm;59477;52.374;9.916;2023-04-16T08:14:40;54.91;44.06;67.85;;
71628;Laerm;59477;52.374;9.916;2023-04-16T08:16:41;54.14;45.66;66.58;;
71628;Laerm;59477;52.374;9.916;2023-04-16T08:18:43;52.24;43.11;69.42;;
71628;Laerm;59477;52.374;9.916;2023-04-16T08:20:44;55.50;42.51;73.12;;
71628;Laerm;59477;52.374;9.916;2023-04-16T08:22:44;49.96;41.64;64.64;;
71628;Laerm;59477;52.374;9.916;2023-04-16T08:24:45;47.94;42.66;64.04;;
71628;Laerm;59477;52.374;9.916;2023-04-16T08:26:45;49.50;43.60;58.85;;
71628;Laerm;59477;52.374;9.916;2023-04-16T08:28:46;54.40;42.55;70.49;;
71628;Laerm;59477;52.374;9.916;2023-04-16T08:30:47;49.46;43.71;64.90;;
71628;Laerm;59477;52.374;9.916;2023-04-16T08:32:47;48.44;43.41;54.71;;
71628;Laerm;59477;52.374;9.916;2023-04-16T08:34:48;48.60;42.82;57.88;;
71628;Laerm;59477;52.374;9.916;2023-04-16T08:36:48;48.45;43.43;60.92;;
71628;Laerm;59477;52.374;9.916;2023-04-16T08:38:49;48.23;43.98;59.51;;
71628;Laerm;59477;52.374;9.916;2023-04-16T08:40:51;58.47;46.30;71.69;;
71628;Laerm;59477;52.374;9.916;2023-04-16T08:42:54;50.89;44.29;67.57;;
71628;Laerm;59477;52.374;9.916;2023-04-16T08:47:07;49.19;43.95;60.29;;
71628;Laerm;59477;52.374;9.916;2023-04-16T08:49:09;50.02;44.68;58.81;;
71628;Laerm;59477;52.374;9.916;2023-04-16T08:51:14;50.63;45.63;60.53;;
71628;Laerm;59477;52.374;9.916;2023-04-16T08:53:17;49.34;43.93;65.63;;
71628;Laerm;59477;52.374;9.916;2023-04-16T08:55:25;49.39;43.38;60.68;;
71628;Laerm;59477;52.374;9.916;2023-04-16T08:57:33;50.07;43.69;61.83;;
71628;Laerm;59477;52.374;9.916;2023-04-16T08:59:37;51.06;43.96;58.46;;
71628;Laerm;59477;52.374;9.916;2023-04-16T09:01:38;49.29;44.08;61.24;;
71628;Laerm;59477;52.374;9.916;2023-04-16T09:03:41;53.99;46.24;64.82;;
71628;Laerm;59477;52.374;9.916;2023-04-16T09:05:41;49.94;45.54;62.13;;
71628;Laerm;59477;52.374;9.916;2023-04-16T09:07:43;51.51;43.61;64.42;;
71628;Laerm;59477;52.374;9.916;2023-04-16T09:09:44;52.50;45.78;64.64;;
71628;Laerm;59477;52.374;9.916;2023-04-16T09:11:49;48.96;43.67;63.05;;
71628;Laerm;59477;52.374;9.916;2023-04-16T09:13:50;49.53;44.01;63.20;;
71628;Laerm;59477;52.374;9.916;2023-04-16T09:15:54;51.90;43.77;63.65;;
71628;Laerm;59477;52.374;9.916;2023-04-16T09:17:56;47.67;42.57;60.40;;
71628;Laerm;59477;52.374;9.916;2023-04-16T09:19:57;52.64;43.00;60.70;;
71628;Laerm;59477;52.374;9.916;2023-04-16T09:21:57;49.62;43.35;67.10;;
71628;Laerm;59477;52.374;9.916;2023-04-16T09:23:58;51.01;45.23;62.26;;
71628;Laerm;59477;52.374;9.916;2023-04-16T09:25:59;58.13;44.51;67.89;;
71628;Laerm;59477;52.374;9.916;2023-04-16T09:28:00;50.44;43.98;60.57;;
71628;Laerm;59477;52.374;9.916;2023-04-16T09:30:00;52.91;45.10;69.40;;
71628;Laerm;59477;52.374;9.916;2023-04-16T09:32:01;53.64;46.09;67.20;;
71628;Laerm;59477;52.374;9.916;2023-04-16T09:34:04;52.86;45.66;67.19;;
71628;Laerm;59477;52.374;9.916;2023-04-16T09:36:05;51.86;44.68;69.26;;
71628;Laerm;59477;52.374;9.916;2023-04-16T09:38:09;56.79;46.05;69.41;;
71628;Laerm;59477;52.374;9.916;2023-04-16T09:40:10;52.89;44.40;67.29;;
71628;Laerm;59477;52.374;9.916;2023-04-16T09:42:11;58.83;43.78;73.81;;
71628;Laerm;59477;52.374;9.916;2023-04-16T09:44:11;49.96;43.41;59.73;;
71628;Laerm;59477;52.374;9.916;2023-04-16T09:46:12;49.77;44.18;65.82;;
71628;Laerm;59477;52.374;9.916;2023-04-16T09:48:12;55.39;46.01;66.69;;
71628;Laerm;59477;52.374;9.916;2023-04-16T09:50:14;52.51;45.24;66.24;;
71628;Laerm;59477;52.374;9.916;2023-04-16T09:52:17;53.75;45.75;68.25;;
71628;Laerm;59477;52.374;9.916;2023-04-16T09:54:18;53.12;43.98;69.51;;
71628;Laerm;59477;52.374;9.916;2023-04-16T09:56:22;53.84;44.03;67.06;;
71628;Laerm;59477;52.374;9.916;2023-04-16T09:58:23;50.05;43.65;59.10;;
71628;Laerm;59477;52.374;9.916;2023-04-16T10:00:29;48.98;43.45;62.38;;
71628;Laerm;59477;52.374;9.916;2023-04-16T10:02:31;51.79;44.06;66.30;;
71628;Laerm;59477;52.374;9.916;2023-04-16T10:04:46;52.31;44.24;67.46;;
71628;Laerm;59477;52.374;9.916;2023-04-16T10:07:03;49.41;43.82;63.69;;
71628;Laerm;59477;52.374;9.916;2023-04-16T10:09:05;49.66;44.31;60.71;;
71628;Laerm;59477;52.374;9.916;2023-04-16T10:11:06;51.50;46.08;56.68;;
71628;Laerm;59477;52.374;9.916;2023-04-16T10:13:07;52.24;46.80;67.08;;
71628;Laerm;59477;52.374;9.916;2023-04-16T10:15:08;53.42;45.82;71.61;;
71628;Laerm;59477;52.374;9.916;2023-04-16T10:17:08;53.42;45.78;69.87;;
71628;Laerm;59477;52.374;9.916;2023-04-16T10:19:09;53.51;46.14;69.97;;
71628;Laerm;59477;52.374;9.916;2023-04-16T10:21:10;50.89;46.26;61.54;;
71628;Laerm;59477;52.374;9.916;2023-04-16T10:23:12;50.55;45.31;59.26;;
71628;Laerm;59477;52.374;9.916;2023-04-16T10:25:12;52.43;45.60;63.59;;
71628;Laerm;59477;52.374;9.916;2023-04-16T10:27:13;52.36;46.76;65.47;;
71628;Laerm;59477;52.374;9.916;2023-04-16T10:29:14;52.84;46.05;63.50;;
71628;Laerm;59477;52.374;9.916;2023-04-16T10:31:25;53.73;45.43;64.99;;
71628;Laerm;59477;52.374;9.916;2023-04-16T10:33:27;51.72;46.30;59.90;;
71628;Laerm;59477;52.374;9.916;2023-04-16T10:35:29;50.84;46.18;60.46;;
71628;Laerm;59477;52.374;9.916;2023-04-16T10:37:30;50.16;45.94;59.33;;
71628;Laerm;59477;52.374;9.916;2023-04-16T10:39:31;52.02;45.88;69.90;;
71628;Laerm;59477;52.374;9.916;2023-04-16T10:41:36;50.40;45.37;64.49;;
71628;Laerm;59477;52.374;9.916;2023-04-16T10:43:38;55.86;45.52;66.73;;
71628;Laerm;59477;52.374;9.916;2023-04-16T10:45:40;51.59;46.43;63.53;;
71628;Laerm;59477;52.374;9.916;2023-04-16T10:47:40;51.31;44.93;61.81;;
71628;Laerm;59477;52.374;9.916;2023-04-16T10:49:42;50.12;46.07;56.82;;
71628;Laerm;59477;52.374;9.916;2023-04-16T10:51:51;51.08;46.52;56.78;;
71628;Laerm;59477;52.374;9.916;2023-04-16T10:53:52;51.58;46.85;61.09;;
71628;Laerm;59477;52.374;9.916;2023-04-16T10:55:56;50.72;46.40;59.87;;
71628;Laerm;59477;52.374;9.916;2023-04-16T10:57:57;55.58;47.88;74.43;;
71628;Laerm;59477;52.374;9.916;2023-04-16T10:59:58;50.97;46.07;60.36;;
71628;Laerm;59477;52.374;9.916;2023-04-16T11:01:59;51.51;45.93;60.88;;
71628;Laerm;59477;52.374;9.916;2023-04-16T11:06:25;52.01;46.97;57.79;;
71628;Laerm;59477;52.374;9.916;2023-04-16T11:08:26;51.25;46.28;63.63;;
71628;Laerm;59477;52.374;9.916;2023-04-16T11:10:26;51.47;45.73;61.16;;
71628;Laerm;59477;52.374;9.916;2023-04-16T11:14:31;52.14;45.93;68.45;;
71628;Laerm;59477;52.374;9.916;2023-04-16T11:16:32;52.10;46.44;63.70;;
71628;Laerm;59477;52.374;9.916;2023-04-16T11:18:33;52.78;46.34;64.85;;
71628;Laerm;59477;52.374;9.916;2023-04-16T11:20:33;51.51;45.74;64.22;;
71628;Laerm;59477;52.374;9.916;2023-04-16T11:22:35;53.83;46.32;65.19;;
71628;Laerm;59477;52.374;9.916;2023-04-16T11:24:38;54.12;46.27;66.98;;